Time;durP1;ratioP1;P1;durP2;ratioP2;P2;SDS_P1;SDS_P2;PMS_P1;PMS_P2;Temp;Humidity;BMP_temperature;BMP_pressure;BME280_temperature;BME280_humidity;BME280_pressure;Samples;Min_cycle;Max_cycle;Signal;HPM_P1;HPM_P2
2024/02/27 00:00:20;;;;;;;5.82;1.48;;;4.20;99.90;;;;;;5032948;28;20161;-65
2024/02/27 00:02:47;;;;;;;6.70;2.03;;;4.20;99.90;;;;;;5033164;28;20045;-65
2024/02/27 00:05:14;;;;;;;8.38;2.10;;;4.20;99.90;;;;;;5033206;28;20046;-65
2024/02/27 00:07:41;;;;;;;6.47;1.65;;;4.30;99.90;;;;;;5032780;28;20478;-65
2024/02/27 00:10:09;;;;;;;10.40;1.73;;;4.30;99.90;;;;;;5032599;28;20038;-65
2024/02/27 00:12:36;;;;;;;10.80;1.73;;;4.30;99.90;;;;;;5031864;28;20344;-65
2024/02/27 00:15:03;;;;;;;9.55;2.13;;;4.30;99.90;;;;;;5032702;28;20060;-65
2024/02/27 00:17:30;;;;;;;9.38;2.10;;;4.40;99.90;;;;;;5035310;28;20045;-66
2024/02/27 00:19:57;;;;;;;8.23;1.80;;;4.40;99.90;;;;;;5036771;28;20046;-65
2024/02/27 00:22:24;;;;;;;10.25;2.13;;;4.50;99.90;;;;;;5036865;28;20060;-62
2024/02/27 00:24:51;;;;;;;9.88;2.70;;;4.50;99.90;;;;;;5036933;28;20065;-61
2024/02/27 00:27:18;;;;;;;9.45;2.10;;;4.50;99.90;;;;;;5036796;28;20451;-61
2024/02/27 00:29:45;;;;;;;8.93;1.85;;;4.50;99.90;;;;;;5036840;28;20034;-60
2024/02/27 00:32:12;;;;;;;8.18;2.17;;;4.50;99.90;;;;;;5036324;28;20068;-60
2024/02/27 00:34:38;;;;;;;11.88;1.98;;;4.60;99.90;;;;;;5036868;28;20079;-60
2024/02/27 00:37:05;;;;;;;5.25;1.63;;;4.60;99.90;;;;;;5036633;28;20360;-62
2024/02/27 00:39:32;;;;;;;4.43;1.50;;;4.60;99.90;;;;;;5036352;28;20042;-62
2024/02/27 00:42:00;;;;;;;7.70;2.05;;;4.60;99.90;;;;;;5036443;28;20092;-65
2024/02/27 00:44:27;;;;;;;9.70;1.92;;;4.70;99.90;;;;;;5036590;28;20033;-65
2024/02/27 00:46:54;;;;;;;11.15;1.90;;;4.70;99.90;;;;;;5036222;28;20099;-64
2024/02/27 00:49:20;;;;;;;10.02;2.17;;;4.60;99.90;;;;;;5036587;28;20124;-66
2024/02/27 00:51:47;;;;;;;9.60;1.90;;;4.60;99.90;;;;;;5036238;28;20041;-66
2024/02/27 00:54:14;;;;;;;11.30;1.52;;;4.60;99.90;;;;;;5036024;28;20057;-66
2024/02/27 00:56:41;;;;;;;9.32;1.88;;;4.50;99.90;;;;;;5035876;28;20577;-65
2024/02/27 00:59:08;;;;;;;8.85;1.90;;;4.50;99.90;;;;;;5036242;28;20137;-65
2024/02/27 01:01:36;;;;;;;11.50;2.05;;;4.40;99.90;;;;;;5036469;28;20105;-65
2024/02/27 01:04:03;;;;;;;10.13;2.28;;;4.40;99.90;;;;;;5036506;28;20091;-65
2024/02/27 01:06:30;;;;;;;10.88;1.98;;;4.30;99.90;;;;;;5036306;28;20052;-65
2024/02/27 01:08:56;;;;;;;8.32;1.98;;;4.30;99.90;;;;;;5036414;28;20041;-65
2024/02/27 01:11:23;;;;;;;8.68;2.00;;;4.20;99.90;;;;;;5036067;28;20069;-65
2024/02/27 01:13:50;;;;;;;12.55;2.67;;;4.20;99.90;;;;;;5036144;28;20046;-65
2024/02/27 01:16:20;;;;;;;9.25;1.95;;;4.10;99.90;;;;;;5035447;28;20068;-66
2024/02/27 01:18:47;;;;;;;16.38;4.28;;;4.10;99.90;;;;;;5036210;28;20490;-65
2024/02/27 01:21:14;;;;;;;10.32;2.10;;;4.10;99.90;;;;;;5036263;28;20053;-65
2024/02/27 01:23:40;;;;;;;15.77;2.03;;;4.00;99.90;;;;;;5035699;28;20045;-65
2024/02/27 01:26:07;;;;;;;11.00;2.20;;;4.00;99.90;;;;;;5035438;28;20407;-64
2024/02/27 01:28:34;;;;;;;12.43;2.55;;;4.00;99.90;;;;;;5034888;28;20084;-64
2024/02/27 01:31:01;;;;;;;8.60;2.08;;;4.00;99.90;;;;;;5036054;28;20045;-64
2024/02/27 01:33:27;;;;;;;7.88;2.58;;;4.00;99.90;;;;;;5034406;28;20394;-67
2024/02/27 01:35:54;;;;;;;8.88;1.92;;;4.00;99.90;;;;;;5035582;28;20356;-64
2024/02/27 01:38:21;;;;;;;6.68;2.00;;;4.00;99.90;;;;;;5034573;28;20053;-66
2024/02/27 01:40:48;;;;;;;6.95;2.08;;;4.00;99.90;;;;;;5035722;28;20037;-64
2024/02/27 01:43:15;;;;;;;9.82;2.45;;;4.00;99.90;;;;;;5036033;28;20065;-64
2024/02/27 01:45:42;;;;;;;11.30;1.95;;;4.00;99.90;;;;;;5035272;28;20402;-64
2024/02/27 01:48:09;;;;;;;12.70;2.10;;;4.00;99.90;;;;;;5035853;28;20038;-65
2024/02/27 01:50:36;;;;;;;9.32;2.08;;;4.10;99.90;;;;;;5035781;28;20041;-66
2024/02/27 01:53:03;;;;;;;9.60;2.05;;;4.10;99.90;;;;;;5035881;28;20046;-64
2024/02/27 01:55:29;;;;;;;13.15;2.40;;;4.10;99.90;;;;;;5035464;28;20060;-64
2024/02/27 01:57:56;;;;;;;6.55;2.10;;;4.10;99.90;;;;;;5035742;28;20050;-64
2024/02/27 02:00:23;;;;;;;11.93;2.65;;;4.10;99.90;;;;;;5035339;28;20049;-66
2024/02/27 02:02:50;;;;;;;8.80;1.88;;;4.20;99.90;;;;;;5035867;28;20076;-64
2024/02/27 02:05:17;;;;;;;6.75;1.90;;;4.20;99.90;;;;;;5035894;28;20068;-64
2024/02/27 02:07:43;;;;;;;8.10;1.88;;;4.20;99.90;;;;;;5037982;28;20444;-64
2024/02/27 02:10:11;;;;;;;10.15;2.25;;;4.20;99.90;;;;;;5037758;28;20467;-65
2024/02/27 02:12:37;;;;;;;15.40;2.17;;;4.30;99.90;;;;;;5040209;28;20046;-65
2024/02/27 02:15:05;;;;;;;8.07;2.20;;;4.30;99.90;;;;;;5038806;28;20086;-64
2024/02/27 02:17:33;;;;;;;9.90;2.08;;;4.30;99.90;;;;;;5039340;28;20486;-64
2024/02/27 02:20:04;;;;;;;5.72;1.70;;;4.30;99.90;;;;;;5037628;28;20113;-65
2024/02/27 02:22:32;;;;;;;8.10;2.28;;;4.30;99.90;;;;;;5036895;28;20041;-64
2024/02/27 02:24:59;;;;;;;10.02;2.30;;;4.30;99.90;;;;;;5037749;28;20368;-65
2024/02/27 02:27:26;;;;;;;8.27;2.25;;;4.30;99.90;;;;;;5036465;28;20481;-65
2024/02/27 02:29:54;;;;;;;9.27;2.42;;;4.30;99.90;;;;;;5034902;28;20443;-65
2024/02/27 02:32:20;;;;;;;13.68;2.38;;;4.30;99.90;;;;;;5034697;28;20128;-64
2024/02/27 02:34:47;;;;;;;9.70;2.40;;;4.20;99.90;;;;;;5034565;28;20049;-66
2024/02/27 02:37:14;;;;;;;12.23;2.53;;;4.20;99.90;;;;;;5034753;28;20160;-65
2024/02/27 02:39:41;;;;;;;12.75;2.58;;;4.20;99.90;;;;;;5034323;28;20470;-65
2024/02/27 02:42:08;;;;;;;5.97;2.10;;;4.20;99.90;;;;;;5034336;28;20107;-65
2024/02/27 02:44:35;;;;;;;9.50;2.40;;;4.20;99.90;;;;;;5035071;28;20085;-66
2024/02/27 02:47:01;;;;;;;9.63;2.58;;;4.20;99.90;;;;;;5034027;28;20160;-66
2024/02/27 02:49:28;;;;;;;11.32;2.50;;;4.20;99.90;;;;;;5034509;28;20071;-64
2024/02/27 02:51:55;;;;;;;7.05;2.00;;;4.10;99.90;;;;;;5034044;28;20045;-64
2024/02/27 02:54:23;;;;;;;12.77;2.72;;;4.10;99.90;;;;;;5034389;28;20038;-64
2024/02/27 02:56:49;;;;;;;13.05;2.63;;;4.10;99.90;;;;;;5033958;28;20045;-65
2024/02/27 02:59:16;;;;;;;7.25;2.35;;;4.10;99.90;;;;;;5034221;28;20046;-64
2024/02/27 03:01:43;;;;;;;7.32;2.03;;;4.20;99.90;;;;;;5033988;28;20493;-66
2024/02/27 03:04:10;;;;;;;12.10;2.20;;;4.10;99.90;;;;;;5033577;28;20038;-65
2024/02/27 03:06:37;;;;;;;13.13;2.60;;;4.10;99.90;;;;;;5033761;28;20042;-64
2024/02/27 03:09:03;;;;;;;5.25;2.00;;;4.10;99.90;;;;;;5033558;28;20034;-64
2024/02/27 03:11:30;;;;;;;10.05;2.92;;;4.10;99.90;;;;;;5034069;28;20088;-65
2024/02/27 03:13:57;;;;;;;7.53;2.28;;;4.10;99.90;;;;;;5033769;28;20034;-65
2024/02/27 03:16:24;;;;;;;5.38;2.00;;;4.10;99.90;;;;;;5033334;28;20111;-65
2024/02/27 03:18:51;;;;;;;6.68;2.30;;;4.10;99.90;;;;;;5033783;28;20052;-60
2024/02/27 03:21:18;;;;;;;8.30;2.10;;;4.10;99.90;;;;;;5033904;28;20037;-61
2024/02/27 03:23:44;;;;;;;10.63;2.53;;;4.10;99.90;;;;;;5033989;28;20071;-60
2024/02/27 03:26:11;;;;;;;9.20;2.20;;;4.10;99.90;;;;;;5033190;28;20080;-60
2024/02/27 03:28:38;;;;;;;9.32;2.13;;;4.00;99.90;;;;;;5032120;28;20037;-60
2024/02/27 03:31:05;;;;;;;6.43;2.50;;;4.00;99.90;;;;;;5033573;28;20112;-60
2024/02/27 03:33:31;;;;;;;6.93;2.58;;;4.00;99.90;;;;;;5033628;28;20046;-60
2024/02/27 03:35:59;;;;;;;11.25;2.15;;;4.00;99.90;;;;;;5031853;28;20049;-60
2024/02/27 03:38:25;;;;;;;9.95;2.30;;;3.90;99.90;;;;;;5033669;28;20048;-60
2024/02/27 03:40:52;;;;;;;8.32;2.30;;;3.90;99.90;;;;;;5033362;28;20092;-60
2024/02/27 03:43:19;;;;;;;15.02;2.50;;;3.90;99.90;;;;;;5033779;28;20050;-60
2024/02/27 03:45:46;;;;;;;12.13;2.80;;;3.90;99.90;;;;;;5032897;28;20045;-60
2024/02/27 03:48:12;;;;;;;8.45;1.98;;;3.80;99.90;;;;;;5033491;28;20069;-60
2024/02/27 03:50:39;;;;;;;10.48;2.72;;;3.80;99.90;;;;;;5033200;28;20401;-60
2024/02/27 03:53:06;;;;;;;8.38;2.33;;;3.70;99.90;;;;;;5033185;28;20049;-60
2024/02/27 03:55:33;;;;;;;9.60;2.20;;;3.70;99.90;;;;;;5032711;28;20045;-60
2024/02/27 03:58:00;;;;;;;12.85;2.50;;;3.70;99.90;;;;;;5033257;28;20040;-60
2024/02/27 04:00:27;;;;;;;11.82;2.30;;;3.70;99.90;;;;;;5032992;28;20041;-60
2024/02/27 04:02:54;;;;;;;9.63;2.35;;;3.60;99.90;;;;;;5033559;28;20048;-61
2024/02/27 04:05:21;;;;;;;7.47;2.30;;;3.70;99.90;;;;;;5033175;28;20467;-60
2024/02/27 04:07:48;;;;;;;9.25;2.30;;;3.70;99.90;;;;;;5033278;28;20401;-61
2024/02/27 04:10:15;;;;;;;10.10;2.55;;;3.70;99.90;;;;;;5032826;28;20114;-61
2024/02/27 04:12:42;;;;;;;9.88;2.42;;;3.70;99.90;;;;;;5032843;28;20041;-61
2024/02/27 04:15:08;;;;;;;13.02;2.10;;;3.70;99.90;;;;;;5032603;28;20065;-61
2024/02/27 04:17:35;;;;;;;8.50;2.05;;;3.70;99.90;;;;;;5033169;28;20084;-61
2024/02/27 04:20:05;;;;;;;9.38;2.50;;;3.70;99.90;;;;;;5032753;28;20132;-61
2024/02/27 04:22:33;;;;;;;9.80;2.47;;;3.80;99.90;;;;;;5032654;28;20367;-60
2024/02/27 04:25:00;;;;;;;11.07;2.30;;;3.80;99.90;;;;;;5032499;28;20056;-61
2024/02/27 04:27:26;;;;;;;8.35;2.50;;;3.80;99.90;;;;;;5031251;28;20541;-61
2024/02/27 04:29:53;;;;;;;9.00;3.05;;;3.80;99.90;;;;;;5033544;28;20077;-61
2024/02/27 04:32:20;;;;;;;8.75;2.58;;;3.80;99.90;;;;;;5033015;28;20065;-61
2024/02/27 04:34:47;;;;;;;7.70;2.25;;;3.80;99.90;;;;;;5032656;28;20069;-61
2024/02/27 04:37:13;;;;;;;6.53;2.38;;;3.70;99.90;;;;;;5033946;28;20107;-60
2024/02/27 04:39:40;;;;;;;10.05;2.53;;;3.70;99.90;;;;;;5032907;28;20045;-61
2024/02/27 04:42:07;;;;;;;6.00;2.17;;;3.70;99.90;;;;;;5032514;28;20049;-61
2024/02/27 04:44:34;;;;;;;6.65;2.13;;;3.60;99.90;;;;;;5031361;28;20041;-61
2024/02/27 04:47:00;;;;;;;9.27;2.63;;;3.60;99.90;;;;;;5032669;28;20034;-61
2024/02/27 04:49:27;;;;;;;8.68;2.28;;;3.60;99.90;;;;;;5032712;28;20143;-61
2024/02/27 04:51:54;;;;;;;6.65;2.22;;;3.60;99.90;;;;;;5032138;28;20046;-61
2024/02/27 04:54:21;;;;;;;9.50;2.50;;;3.50;99.90;;;;;;5032706;28;20037;-61
2024/02/27 04:56:47;;;;;;;9.32;3.13;;;3.50;99.90;;;;;;5032158;28;20053;-61
2024/02/27 04:59:14;;;;;;;10.30;2.70;;;3.50;99.90;;;;;;5032745;28;20045;-60
2024/02/27 05:01:41;;;;;;;9.00;2.80;;;3.50;99.90;;;;;;5032503;28;20356;-61
2024/02/27 05:04:08;;;;;;;10.75;2.90;;;3.40;99.90;;;;;;5034201;28;20077;-61
2024/02/27 05:06:35;;;;;;;15.73;3.08;;;3.50;99.90;;;;;;5035766;28;20042;-60
2024/02/27 05:09:03;;;;;;;7.43;2.50;;;3.40;99.90;;;;;;5035883;28;20042;-61
2024/02/27 05:11:30;;;;;;;7.28;2.42;;;3.40;99.90;;;;;;5036481;28;20057;-61
2024/02/27 05:13:57;;;;;;;8.00;2.88;;;3.40;99.90;;;;;;5036184;28;20048;-60
2024/02/27 05:16:24;;;;;;;7.93;2.95;;;3.40;99.90;;;;;;5035548;28;20049;-60
2024/02/27 05:18:50;;;;;;;9.02;2.88;;;3.40;99.90;;;;;;5036176;28;20041;-60
2024/02/27 05:21:18;;;;;;;10.02;2.80;;;3.40;99.90;;;;;;5035963;28;20120;-61
2024/02/27 05:23:45;;;;;;;14.88;3.15;;;3.50;99.90;;;;;;5035587;28;20512;-61
2024/02/27 05:26:12;;;;;;;10.48;3.50;;;3.50;99.90;;;;;;5036171;28;20038;-60
2024/02/27 05:28:38;;;;;;;9.98;3.10;;;3.50;99.90;;;;;;5035750;28;20043;-61
2024/02/27 05:31:05;;;;;;;10.20;3.08;;;3.50;99.90;;;;;;5035528;28;20128;-61
2024/02/27 05:33:32;;;;;;;8.98;3.20;;;3.50;99.90;;;;;;5036086;28;20038;-60
2024/02/27 05:35:59;;;;;;;13.02;3.20;;;3.50;99.90;;;;;;5035695;28;20045;-61
2024/02/27 05:38:26;;;;;;;11.38;3.50;;;3.60;99.90;;;;;;5036158;28;20049;-65
2024/02/27 05:40:53;;;;;;;10.00;3.35;;;3.60;99.90;;;;;;5035308;28;20064;-65
2024/02/27 05:43:20;;;;;;;12.15;3.33;;;3.60;99.90;;;;;;5035762;28;20049;-66
2024/02/27 05:45:47;;;;;;;8.00;3.55;;;3.60;99.90;;;;;;5035231;28;20041;-65
2024/02/27 05:48:13;;;;;;;8.10;3.10;;;3.60;99.90;;;;;;5035349;28;20103;-66
2024/02/27 05:50:40;;;;;;;10.88;3.60;;;3.60;99.90;;;;;;5035127;28;20099;-65
2024/02/27 05:53:07;;;;;;;11.88;3.42;;;3.60;99.90;;;;;;5034128;28;20153;-65
2024/02/27 05:55:34;;;;;;;8.93;3.35;;;3.50;99.90;;;;;;5035353;28;20041;-65
2024/02/27 05:58:01;;;;;;;8.20;3.70;;;3.50;99.90;;;;;;5034904;28;20498;-66
2024/02/27 06:00:27;;;;;;;10.45;3.70;;;3.60;99.90;;;;;;5035647;28;20038;-66
2024/02/27 06:02:54;;;;;;;11.32;3.40;;;3.50;99.90;;;;;;5035028;28;20407;-66
2024/02/27 06:05:21;;;;;;;10.93;4.07;;;3.60;99.90;;;;;;5033810;28;20053;-66
2024/02/27 06:07:48;;;;;;;11.25;4.15;;;3.60;99.90;;;;;;5035102;28;20430;-66
2024/02/27 06:10:15;;;;;;;11.60;4.45;;;3.50;99.90;;;;;;5033938;28;20406;-66
2024/02/27 06:12:42;;;;;;;10.25;4.30;;;3.60;99.90;;;;;;5035538;28;20386;-66
2024/02/27 06:15:09;;;;;;;11.65;4.82;;;3.60;99.90;;;;;;5034669;28;20065;-65
2024/02/27 06:17:36;;;;;;;10.20;4.57;;;3.60;99.90;;;;;;5034963;28;20045;-65
2024/02/27 06:20:09;;;;;;;10.23;4.28;;;3.50;99.90;;;;;;5034512;28;20499;-66
2024/02/27 06:22:40;;;;;;;9.75;4.20;;;3.50;99.90;;;;;;5034981;28;20106;-65
2024/02/27 06:25:06;;;;;;;14.80;4.88;;;3.50;99.90;;;;;;5034401;28;20042;-65
2024/02/27 06:27:33;;;;;;;12.68;5.15;;;3.50;99.90;;;;;;5034798;28;20041;-66
2024/02/27 06:30:00;;;;;;;13.23;5.85;;;3.40;99.90;;;;;;5033761;28;20037;-66
2024/02/27 06:32:27;;;;;;;15.73;5.07;;;3.40;99.90;;;;;;5033898;28;20073;-65
2024/02/27 06:34:54;;;;;;;11.38;5.30;;;3.30;99.90;;;;;;5034861;28;20037;-66
2024/02/27 06:37:21;;;;;;;15.50;5.70;;;3.20;99.90;;;;;;5033532;28;20051;-66
2024/02/27 06:39:47;;;;;;;15.05;5.45;;;3.20;99.90;;;;;;5034346;28;20038;-65
2024/02/27 06:42:14;;;;;;;9.95;5.38;;;3.10;99.90;;;;;;5034379;28;20044;-65
2024/02/27 06:44:41;;;;;;;10.18;5.47;;;3.00;99.90;;;;;;5034069;28;20048;-65
2024/02/27 06:47:08;;;;;;;11.95;5.72;;;3.00;99.90;;;;;;5034119;28;20034;-66
2024/02/27 06:49:34;;;;;;;11.35;5.55;;;2.90;99.90;;;;;;5034471;28;20033;-67
2024/02/27 06:52:02;;;;;;;14.70;5.82;;;2.90;99.90;;;;;;5032737;28;20045;-62
2024/02/27 06:54:29;;;;;;;13.25;5.22;;;2.90;99.90;;;;;;5034187;28;20061;-62
2024/02/27 06:56:56;;;;;;;12.50;5.25;;;2.90;99.90;;;;;;5034123;28;20041;-62
2024/02/27 06:59:22;;;;;;;14.13;5.75;;;2.90;99.90;;;;;;5034043;28;20048;-62
2024/02/27 07:01:49;;;;;;;11.77;6.15;;;2.80;99.90;;;;;;5033676;28;20091;-62
2024/02/27 07:04:16;;;;;;;12.27;6.38;;;2.90;99.90;;;;;;5034127;28;20037;-62
2024/02/27 07:06:43;;;;;;;12.13;5.95;;;2.80;99.90;;;;;;5034116;28;20377;-62
2024/02/27 07:09:11;;;;;;;11.02;5.55;;;2.80;99.90;;;;;;5032994;28;20052;-62
2024/02/27 07:11:38;;;;;;;10.73;5.72;;;2.70;99.90;;;;;;5034234;28;20045;-62
2024/02/27 07:14:04;;;;;;;11.35;5.47;;;2.70;99.90;;;;;;5034221;28;20036;-62
2024/02/27 07:16:31;;;;;;;15.98;7.50;;;2.70;99.90;;;;;;5034123;28;20049;-62
2024/02/27 07:18:58;;;;;;;14.32;6.85;;;2.70;99.90;;;;;;5033971;28;20060;-62
2024/02/27 07:21:25;;;;;;;13.38;6.22;;;2.80;99.90;;;;;;5034256;28;20042;-62
2024/02/27 07:23:52;;;;;;;16.65;6.47;;;2.80;99.90;;;;;;5033987;28;20045;-62
2024/02/27 07:26:19;;;;;;;10.35;6.82;;;2.80;99.90;;;;;;5033030;28;20040;-62
2024/02/27 07:28:46;;;;;;;11.52;6.95;;;2.80;99.90;;;;;;5033401;28;20128;-62
2024/02/27 07:31:17;;;;;;;11.77;6.57;;;2.90;99.90;;;;;;5032300;28;20482;-62
2024/02/27 07:33:43;;;;;;;11.13;6.28;;;2.90;99.90;;;;;;5033553;28;20050;-62
2024/02/27 07:36:10;;;;;;;12.32;6.47;;;2.90;99.90;;;;;;5032045;28;20172;-60
2024/02/27 07:38:37;;;;;;;10.88;5.72;;;2.90;99.90;;;;;;5033444;28;20120;-60
2024/02/27 07:41:04;;;;;;;10.85;6.32;;;3.00;99.90;;;;;;5033213;28;20041;-60
2024/02/27 07:43:31;;;;;;;12.63;6.50;;;3.00;99.90;;;;;;5033181;28;20137;-60
2024/02/27 07:45:58;;;;;;;13.70;6.88;;;3.00;99.90;;;;;;5032825;28;20065;-61
2024/02/27 07:48:25;;;;;;;9.90;6.53;;;3.10;99.90;;;;;;5033102;28;20061;-60
2024/02/27 07:50:52;;;;;;;11.13;6.90;;;3.10;99.90;;;;;;5031829;28;20046;-60
2024/02/27 07:53:19;;;;;;;10.75;6.50;;;3.20;99.90;;;;;;5033050;28;20045;-60
2024/02/27 07:55:46;;;;;;;11.25;7.13;;;3.30;99.90;;;;;;5032913;28;20042;-60
2024/02/27 07:58:12;;;;;;;13.02;6.78;;;3.40;99.90;;;;;;5033119;28;20072;-60
2024/02/27 08:00:39;;;;;;;10.63;6.70;;;3.50;99.90;;;;;;5031792;28;20474;-60
2024/02/27 08:03:06;;;;;;;14.75;7.95;;;3.50;99.90;;;;;;5032786;28;20041;-61
2024/02/27 08:05:33;;;;;;;15.45;8.05;;;3.60;99.90;;;;;;5032981;28;20056;-61
2024/02/27 08:08:00;;;;;;;13.65;7.15;;;3.60;99.90;;;;;;5032582;28;20065;-61
2024/02/27 08:10:27;;;;;;;11.10;7.25;;;3.70;99.90;;;;;;5032848;28;20053;-60
2024/02/27 08:12:54;;;;;;;12.13;6.90;;;3.80;99.90;;;;;;5032042;28;20069;-64
2024/02/27 08:15:20;;;;;;;12.10;7.38;;;3.80;99.90;;;;;;5032477;28;20046;-64
2024/02/27 08:17:47;;;;;;;14.25;7.40;;;3.90;99.90;;;;;;5033097;28;20050;-64
2024/02/27 08:20:14;;;;;;;13.25;6.82;;;3.90;99.90;;;;;;5031423;28;20046;-60
2024/02/27 08:22:41;;;;;;;12.93;7.13;;;4.00;99.90;;;;;;5032706;28;20136;-60
2024/02/27 08:25:08;;;;;;;11.50;7.55;;;4.00;99.90;;;;;;5032636;28;20037;-60
2024/02/27 08:27:35;;;;;;;13.77;7.30;;;4.00;99.90;;;;;;5032804;28;20045;-61
2024/02/27 08:30:04;;;;;;;15.85;7.05;;;4.00;99.90;;;;;;5032663;28;20045;-61
2024/02/27 08:32:31;;;;;;;13.48;7.25;;;4.10;99.90;;;;;;5033277;28;20056;-60
2024/02/27 08:34:58;;;;;;;14.82;8.05;;;4.10;99.90;;;;;;5033047;28;20044;-61
2024/02/27 08:37:25;;;;;;;12.88;8.10;;;4.20;99.90;;;;;;5033030;28;20506;-60
2024/02/27 08:39:52;;;;;;;11.23;7.07;;;4.20;99.90;;;;;;5035357;28;20073;-60
2024/02/27 08:42:19;;;;;;;11.35;6.53;;;4.20;99.90;;;;;;5035411;28;20067;-62
2024/02/27 08:44:46;;;;;;;12.20;6.60;;;4.30;99.90;;;;;;5036240;28;20038;-61
2024/02/27 08:47:13;;;;;;;17.52;7.18;;;4.40;99.90;;;;;;5036637;28;20128;-61
2024/02/27 08:49:40;;;;;;;14.20;7.45;;;4.40;99.90;;;;;;5036361;28;20038;-60
2024/02/27 08:52:07;;;;;;;14.45;7.45;;;4.50;99.90;;;;;;5036264;28;20113;-61
2024/02/27 08:54:33;;;;;;;17.85;7.65;;;4.50;99.90;;;;;;5036456;28;20049;-60
2024/02/27 08:57:01;;;;;;;14.90;7.70;;;4.60;99.90;;;;;;5034976;28;20044;-61
2024/02/27 08:59:28;;;;;;;14.48;7.20;;;4.70;99.90;;;;;;5036348;28;20120;-60
2024/02/27 09:01:54;;;;;;;11.32;7.28;;;4.70;99.90;;;;;;5035778;28;20052;-61
2024/02/27 09:04:21;;;;;;;12.77;7.10;;;4.80;99.90;;;;;;5036288;28;20490;-60
2024/02/27 09:06:48;;;;;;;11.73;7.28;;;4.80;99.90;;;;;;5035905;28;20120;-61
2024/02/27 09:09:15;;;;;;;11.02;7.28;;;4.90;99.90;;;;;;5036280;28;20049;-65
2024/02/27 09:11:43;;;;;;;17.17;7.25;;;4.90;99.90;;;;;;5035953;28;20072;-61
2024/02/27 09:14:10;;;;;;;13.57;6.95;;;5.00;99.90;;;;;;5035966;28;20088;-65
2024/02/27 09:16:37;;;;;;;10.43;7.28;;;5.00;99.90;;;;;;5035747;28;20064;-61
2024/02/27 09:19:04;;;;;;;12.93;7.68;;;5.10;99.90;;;;;;5036387;28;20042;-66
2024/02/27 09:21:31;;;;;;;15.65;8.35;;;5.10;99.90;;;;;;5034597;28;20567;-65
2024/02/27 09:23:58;;;;;;;14.02;8.43;;;5.20;99.90;;;;;;5035197;28;20398;-61
2024/02/27 09:26:25;;;;;;;13.15;8.80;;;5.20;99.90;;;;;;5035564;28;20107;-61
2024/02/27 09:28:52;;;;;;;14.20;8.50;;;5.30;99.90;;;;;;5036064;28;20455;-61
2024/02/27 09:31:19;;;;;;;16.80;8.50;;;5.30;99.90;;;;;;5036191;28;20474;-66
2024/02/27 09:33:57;;;;;;;15.63;8.20;;;5.40;99.90;;;;;;5036279;28;20059;-64
2024/02/27 09:36:25;;;;;;;17.73;8.50;;;5.50;99.90;;;;;;5035760;28;20369;-61
2024/02/27 09:38:52;;;;;;;14.55;9.18;;;5.60;99.90;;;;;;5035900;28;20041;-61
2024/02/27 09:41:19;;;;;;;18.73;9.35;;;5.60;99.90;;;;;;5036060;28;20124;-61
2024/02/27 09:43:47;;;;;;;16.38;11.35;;;5.70;99.90;;;;;;5035938;28;20117;-65
2024/02/27 09:46:14;;;;;;;15.63;10.38;;;5.70;99.90;;;;;;5035493;28;20052;-61
2024/02/27 09:48:43;;;;;;;17.65;10.60;;;5.70;99.90;;;;;;5035364;28;20505;-65
2024/02/27 09:51:11;;;;;;;16.42;10.48;;;5.80;99.90;;;;;;5035063;28;20041;-61
2024/02/27 09:53:38;;;;;;;13.65;10.30;;;5.80;99.90;;;;;;5035666;28;20045;-61
2024/02/27 09:56:08;;;;;;;19.05;10.30;;;5.80;99.90;;;;;;5035146;28;20435;-65
2024/02/27 09:58:38;;;;;;;18.25;10.13;;;5.90;99.90;;;;;;5035318;28;20045;-65
2024/02/27 10:01:05;;;;;;;17.35;10.00;;;5.90;99.90;;;;;;5035233;28;20149;-64
2024/02/27 10:03:33;;;;;;;21.58;11.27;;;6.00;99.90;;;;;;5035034;28;20045;-66
2024/02/27 10:06:00;;;;;;;19.15;11.30;;;6.00;99.90;;;;;;5035173;28;20125;-65
2024/02/27 10:08:27;;;;;;;13.73;9.25;;;6.00;99.90;;;;;;5035267;28;20064;-65
2024/02/27 10:10:53;;;;;;;15.75;9.25;;;6.00;99.90;;;;;;5035025;28;20120;-61
2024/02/27 10:13:20;;;;;;;13.75;7.80;;;6.00;99.90;;;;;;5035034;28;20064;-61
2024/02/27 10:15:47;;;;;;;16.67;9.35;;;6.10;99.90;;;;;;5034338;28;20107;-65
2024/02/27 10:18:14;;;;;;;12.07;8.32;;;6.20;99.90;;;;;;5034532;28;20049;-61
2024/02/27 10:20:41;;;;;;;14.25;8.32;;;6.20;99.90;;;;;;5033313;28;20053;-61
2024/02/27 10:23:08;;;;;;;9.10;5.20;;;6.20;99.90;;;;;;5034739;28;20041;-64
2024/02/27 10:25:35;;;;;;;9.32;4.90;;;6.20;99.90;;;;;;5034410;28;20037;-61
2024/02/27 10:28:01;;;;;;;10.75;5.75;;;6.30;99.90;;;;;;5034587;28;20358;-66
2024/02/27 10:30:28;;;;;;;12.38;6.65;;;6.30;99.90;;;;;;5033294;28;20462;-61
2024/02/27 10:32:55;;;;;;;14.55;5.47;;;6.40;99.90;;;;;;5033357;28;20120;-61
2024/02/27 10:35:22;;;;;;;8.98;5.65;;;6.50;99.90;;;;;;5034419;28;20053;-65
2024/02/27 10:37:49;;;;;;;9.27;5.25;;;6.60;99.90;;;;;;5034794;28;20092;-66
2024/02/27 10:40:16;;;;;;;12.10;5.45;;;6.80;99.90;;;;;;5034294;28;20082;-61
2024/02/27 10:42:43;;;;;;;9.35;5.30;;;6.90;99.90;;;;;;5034469;28;20049;-61
2024/02/27 10:45:10;;;;;;;10.20;4.85;;;7.00;99.90;;;;;;5034382;28;20056;-61
2024/02/27 10:47:37;;;;;;;8.02;4.65;;;7.00;99.90;;;;;;5034337;28;20383;-64
2024/02/27 10:50:08;;;;;;;10.98;4.70;;;7.00;99.90;;;;;;5034281;28;20038;-61
2024/02/27 10:52:35;;;;;;;5.60;3.80;;;7.00;99.90;;;;;;5032784;28;20041;-65
2024/02/27 10:55:02;;;;;;;5.03;2.70;;;7.00;99.90;;;;;;5034274;28;20125;-65
2024/02/27 10:57:29;;;;;;;7.53;3.72;;;7.10;99.90;;;;;;5034394;28;20045;-61
2024/02/27 10:59:55;;;;;;;8.07;2.45;;;7.20;99.90;;;;;;5033853;28;20087;-65
2024/02/27 11:02:22;;;;;;;5.15;3.00;;;7.30;99.90;;;;;;5032729;28;20065;-65
2024/02/27 11:04:49;;;;;;;8.82;2.95;;;7.30;99.90;;;;;;5033746;28;20048;-63
2024/02/27 11:07:16;;;;;;;5.75;2.40;;;7.40;99.90;;;;;;5033573;28;20505;-61
2024/02/27 11:09:43;;;;;;;7.40;3.10;;;7.40;99.90;;;;;;5032423;28;20038;-61
2024/02/27 11:12:10;;;;;;;6.38;2.88;;;7.40;99.90;;;;;;5032225;28;20040;-65
2024/02/27 11:14:36;;;;;;;8.68;3.22;;;7.30;99.90;;;;;;5033481;28;20042;-65
2024/02/27 11:17:05;;;;;;;5.93;2.90;;;7.30;99.90;;;;;;5033695;28;20063;-65
2024/02/27 11:19:31;;;;;;;9.73;3.60;;;7.40;99.90;;;;;;5033683;28;20038;-65
2024/02/27 11:21:58;;;;;;;7.30;3.05;;;7.30;99.90;;;;;;5033377;28;20474;-61
2024/02/27 11:24:25;;;;;;;8.05;2.67;;;7.30;99.90;;;;;;5033236;28;20125;-61
2024/02/27 11:26:52;;;;;;;5.90;2.80;;;7.40;99.90;;;;;;5033537;28;20046;-64
2024/02/27 11:29:19;;;;;;;6.63;2.88;;;7.40;99.90;;;;;;5033306;28;20144;-61
2024/02/27 11:31:46;;;;;;;8.15;3.13;;;7.50;99.90;;;;;;5033364;28;20439;-61
2024/02/27 11:34:13;;;;;;;7.18;3.15;;;7.60;99.90;;;;;;5033592;28;20045;-63
2024/02/27 11:36:40;;;;;;;8.50;3.33;;;7.40;99.90;;;;;;5031890;28;20046;-61
2024/02/27 11:39:07;;;;;;;7.82;3.67;;;7.30;99.90;;;;;;5033204;28;20060;-61
2024/02/27 11:41:35;;;;;;;5.40;3.50;;;7.30;99.90;;;;;;5033456;28;20406;-65
2024/02/27 11:44:01;;;;;;;9.13;3.83;;;7.50;99.90;;;;;;5031875;28;20406;-65
2024/02/27 11:46:28;;;;;;;6.60;4.07;;;7.50;99.90;;;;;;5032835;28;20042;-65
2024/02/27 11:48:55;;;;;;;6.60;3.60;;;7.70;99.90;;;;;;5031879;28;20041;-61
2024/02/27 11:51:22;;;;;;;7.90;4.13;;;7.70;99.90;;;;;;5033046;28;20044;-61
2024/02/27 11:53:49;;;;;;;7.78;3.63;;;7.60;99.90;;;;;;5033520;28;20037;-61
2024/02/27 11:56:17;;;;;;;11.48;4.63;;;7.60;99.90;;;;;;5033009;28;20041;-65
2024/02/27 11:58:44;;;;;;;8.18;3.22;;;7.70;99.90;;;;;;5033374;28;20041;-64
2024/02/27 12:01:11;;;;;;;5.90;3.30;;;7.60;99.90;;;;;;5032874;28;20155;-65
2024/02/27 12:03:38;;;;;;;5.50;3.15;;;7.60;99.90;;;;;;5032959;28;20041;-61
2024/02/27 12:06:07;;;;;;;7.43;3.35;;;7.60;99.90;;;;;;5032852;28;20042;-65
2024/02/27 12:08:34;;;;;;;7.00;2.92;;;7.60;99.90;;;;;;5032872;28;20120;-65
2024/02/27 12:11:01;;;;;;;5.53;2.60;;;7.60;99.90;;;;;;5031960;28;20447;-65
2024/02/27 12:13:28;;;;;;;8.00;2.85;;;7.60;99.90;;;;;;5033087;28;20041;-61
2024/02/27 12:15:55;;;;;;;7.35;3.15;;;7.60;99.90;;;;;;5014832;28;20069;-61
2024/02/27 12:18:22;;;;;;;7.80;3.15;;;7.60;99.90;;;;;;5033164;28;20541;-61
2024/02/27 12:20:49;;;;;;;5.85;2.65;;;7.60;99.90;;;;;;5033028;28;20065;-61
2024/02/27 12:23:16;;;;;;;7.93;3.30;;;7.70;99.90;;;;;;5033345;28;20056;-65
2024/02/27 12:25:43;;;;;;;6.07;2.90;;;7.70;99.90;;;;;;5032601;28;20045;-61
2024/02/27 12:28:10;;;;;;;7.80;2.78;;;7.70;99.90;;;;;;5032998;28;20068;-61
2024/02/27 12:30:36;;;;;;;7.68;3.03;;;7.70;99.90;;;;;;5032671;28;20048;-64
2024/02/27 12:33:06;;;;;;;9.10;2.88;;;7.80;99.90;;;;;;5032659;28;20037;-65
2024/02/27 12:35:33;;;;;;;6.80;3.30;;;7.90;99.90;;;;;;5033098;28;20042;-64
2024/02/27 12:38:00;;;;;;;9.18;3.45;;;7.90;99.90;;;;;;5033101;28;20453;-65
2024/02/27 12:40:27;;;;;;;6.45;3.20;;;7.90;99.90;;;;;;5032601;28;20088;-65
2024/02/27 12:42:54;;;;;;;5.53;3.13;;;7.90;99.90;;;;;;5032416;28;20410;-61
2024/02/27 12:45:21;;;;;;;7.38;3.00;;;7.90;99.90;;;;;;5032335;28;20033;-61
2024/02/27 12:47:48;;;;;;;8.88;2.80;;;8.00;99.90;;;;;;5030961;28;20580;-60